sensor_id;sensor_type;location;lat;lon;timestamp;temperature;humidity
75380;HTU21D;65641;44.714;37.756;2023-03-16T00:00:56;14.30;69.97
75380;HTU21D;65641;44.714;37.756;2023-03-16T00:01:58;14.29;70.00
75380;HTU21D;65641;44.714;37.756;2023-03-16T00:03:01;14.29;70.00
75380;HTU21D;65641;44.714;37.756;2023-03-16T00:04:05;14.28;70.01
75380;HTU21D;65641;44.714;37.756;2023-03-16T00:05:09;14.29;70.02
75380;HTU21D;65641;44.714;37.756;2023-03-16T00:06:12;14.27;70.03
75380;HTU21D;65641;44.714;37.756;2023-03-16T00:07:15;14.27;70.06
75380;HTU21D;65641;44.714;37.756;2023-03-16T00:08:18;14.26;70.06
75380;HTU21D;65641;44.714;37.756;2023-03-16T00:09:22;14.26;70.08
75380;HTU21D;65641;44.714;37.756;2023-03-16T00:10:32;14.26;70.08
75380;HTU21D;65641;44.714;37.756;2023-03-16T00:11:35;14.25;70.11
75380;HTU21D;65641;44.714;37.756;2023-03-16T00:12:38;14.25;70.12
75380;HTU21D;65641;44.714;37.756;2023-03-16T00:13:45;14.23;70.13
75380;HTU21D;65641;44.714;37.756;2023-03-16T00:14:48;14.23;70.14
75380;HTU21D;65641;44.714;37.756;2023-03-16T00:15:54;14.23;70.16
75380;HTU21D;65641;44.714;37.756;2023-03-16T00:16:58;14.22;70.17
75380;HTU21D;65641;44.714;37.756;2023-03-16T00:18:01;14.22;70.19
75380;HTU21D;65641;44.714;37.756;2023-03-16T00:19:03;14.21;70.19
75380;HTU21D;65641;44.714;37.756;2023-03-16T00:20:08;14.21;70.20
75380;HTU21D;65641;44.714;37.756;2023-03-16T00:21:12;14.21;70.22
75380;HTU21D;65641;44.714;37.756;2023-03-16T00:22:15;14.20;70.23
75380;HTU21D;65641;44.714;37.756;2023-03-16T00:23:18;14.19;70.24
75380;HTU21D;65641;44.714;37.756;2023-03-16T00:24:21;14.18;70.26
75380;HTU21D;65641;44.714;37.756;2023-03-16T00:25:26;14.18;70.26
75380;HTU21D;65641;44.714;37.756;2023-03-16T00:26:29;14.18;70.27
75380;HTU21D;65641;44.714;37.756;2023-03-16T00:27:35;14.18;70.29
75380;HTU21D;65641;44.714;37.756;2023-03-16T00:28:38;14.18;70.29
75380;HTU21D;65641;44.714;37.756;2023-03-16T00:29:43;14.17;70.31
75380;HTU21D;65641;44.714;37.756;2023-03-16T00:30:50;14.17;70.31
75380;HTU21D;65641;44.714;37.756;2023-03-16T00:31:53;14.15;70.31
75380;HTU21D;65641;44.714;37.756;2023-03-16T00:32:56;14.14;70.32
75380;HTU21D;65641;44.714;37.756;2023-03-16T00:34:00;14.14;70.31
75380;HTU21D;65641;44.714;37.756;2023-03-16T00:35:04;14.14;70.33
75380;HTU21D;65641;44.714;37.756;2023-03-16T00:36:11;14.14;70.35
75380;HTU21D;65641;44.714;37.756;2023-03-16T00:37:16;14.12;70.35
75380;HTU21D;65641;44.714;37.756;2023-03-16T00:38:19;14.13;70.36
75380;HTU21D;65641;44.714;37.756;2023-03-16T00:39:23;14.13;70.38
75380;HTU21D;65641;44.714;37.756;2023-03-16T00:40:26;14.11;70.37
75380;HTU21D;65641;44.714;37.756;2023-03-16T00:41:29;14.11;70.37
75380;HTU21D;65641;44.714;37.756;2023-03-16T00:42:32;14.10;70.39
75380;HTU21D;65641;44.714;37.756;2023-03-16T00:43:36;14.10;70.39
75380;HTU21D;65641;44.714;37.756;2023-03-16T00:44:43;14.09;70.40
75380;HTU21D;65641;44.714;37.756;2023-03-16T00:45:45;14.10;70.41
75380;HTU21D;65641;44.714;37.756;2023-03-16T00:46:48;14.09;70.41
75380;HTU21D;65641;44.714;37.756;2023-03-16T00:47:53;14.09;70.43
75380;HTU21D;65641;44.714;37.756;2023-03-16T00:48:56;14.09;70.43
75380;HTU21D;65641;44.714;37.756;2023-03-16T00:50:00;14.08;70.43
75380;HTU21D;65641;44.714;37.756;2023-03-16T00:51:08;14.07;70.45
75380;HTU21D;65641;44.714;37.756;2023-03-16T00:52:14;14.07;70.44
75380;HTU21D;65641;44.714;37.756;2023-03-16T00:53:17;14.08;70.45
75380;HTU21D;65641;44.714;37.756;2023-03-16T00:54:20;14.07;70.45
75380;HTU21D;65641;44.714;37.756;2023-03-16T00:55:23;14.06;70.46
75380;HTU21D;65641;44.714;37.756;2023-03-16T00:56:26;14.05;70.48
75380;HTU21D;65641;44.714;37.756;2023-03-16T00:57:29;14.04;70.48
75380;HTU21D;65641;44.714;37.756;2023-03-16T00:58:35;14.04;70.49
75380;HTU21D;65641;44.714;37.756;2023-03-16T00:59:38;14.04;70.51
75380;HTU21D;65641;44.714;37.756;2023-03-16T01:00:41;14.03;70.52
75380;HTU21D;65641;44.714;37.756;2023-03-16T01:01:44;14.01;70.52
75380;HTU21D;65641;44.714;37.756;2023-03-16T01:02:48;14.03;70.52
75380;HTU21D;65641;44.714;37.756;2023-03-16T01:03:53;14.03;70.52
75380;HTU21D;65641;44.714;37.756;2023-03-16T01:04:56;14.00;70.55
75380;HTU21D;65641;44.714;37.756;2023-03-16T01:06:08;14.00;70.54
75380;HTU21D;65641;44.714;37.756;2023-03-16T01:07:13;14.00;70.55
75380;HTU21D;65641;44.714;37.756;2023-03-16T01:08:16;14.01;70.55
75380;HTU21D;65641;44.714;37.756;2023-03-16T01:09:18;13.99;70.55
75380;HTU21D;65641;44.714;37.756;2023-03-16T01:10:22;14.00;70.55
75380;HTU21D;65641;44.714;37.756;2023-03-16T01:11:24;13.99;70.55
75380;HTU21D;65641;44.714;37.756;2023-03-16T01:12:27;13.97;70.57
75380;HTU21D;65641;44.714;37.756;2023-03-16T01:13:31;13.97;70.56
75380;HTU21D;65641;44.714;37.756;2023-03-16T01:14:34;13.98;70.56
75380;HTU21D;65641;44.714;37.756;2023-03-16T01:15:38;13.98;70.56
75380;HTU21D;65641;44.714;37.756;2023-03-16T01:16:41;13.96;70.57
75380;HTU21D;65641;44.714;37.756;2023-03-16T01:17:47;13.96;70.58
75380;HTU21D;65641;44.714;37.756;2023-03-16T01:18:51;13.95;70.58
75380;HTU21D;65641;44.714;37.756;2023-03-16T01:19:54;13.96;70.59
75380;HTU21D;65641;44.714;37.756;2023-03-16T01:20:57;13.95;70.60
75380;HTU21D;65641;44.714;37.756;2023-03-16T01:22:04;13.95;70.60
75380;HTU21D;65641;44.714;37.756;2023-03-16T01:23:07;13.95;70.59
75380;HTU21D;65641;44.714;37.756;2023-03-16T01:24:10;13.93;70.61
75380;HTU21D;65641;44.714;37.756;2023-03-16T01:25:14;13.93;70.61
75380;HTU21D;65641;44.714;37.756;2023-03-16T01:26:17;13.92;70.61
75380;HTU21D;65641;44.714;37.756;2023-03-16T01:27:21;13.93;70.63
75380;HTU21D;65641;44.714;37.756;2023-03-16T01:28:29;13.92;70.63
75380;HTU21D;65641;44.714;37.756;2023-03-16T01:29:33;13.93;70.64
75380;HTU21D;65641;44.714;37.756;2023-03-16T01:30:37;13.92;70.65
75380;HTU21D;65641;44.714;37.756;2023-03-16T01:31:40;13.91;70.66
75380;HTU21D;65641;44.714;37.756;2023-03-16T01:32:43;13.91;70.67
75380;HTU21D;65641;44.714;37.756;2023-03-16T01:33:47;13.91;70.68
75380;HTU21D;65641;44.714;37.756;2023-03-16T01:34:55;13.92;70.66
75380;HTU21D;65641;44.714;37.756;2023-03-16T01:36:05;13.91;70.67
75380;HTU21D;65641;44.714;37.756;2023-03-16T01:37:41;13.90;70.68
75380;HTU21D;65641;44.714;37.756;2023-03-16T01:38:50;13.90;70.68
75380;HTU21D;65641;44.714;37.756;2023-03-16T01:39:53;13.89;70.67
75380;HTU21D;65641;44.714;37.756;2023-03-16T01:40:56;13.89;70.67
75380;HTU21D;65641;44.714;37.756;2023-03-16T01:41:59;13.90;70.68
75380;HTU21D;65641;44.714;37.756;2023-03-16T01:43:03;13.86;70.67
75380;HTU21D;65641;44.714;37.756;2023-03-16T01:44:19;13.88;70.68
75380;HTU21D;65641;44.714;37.756;2023-03-16T01:46:45;13.86;70.68
75380;HTU21D;65641;44.714;37.756;2023-03-16T01:47:48;13.86;70.68
75380;HTU21D;65641;44.714;37.756;2023-03-16T01:50:07;13.85;70.70
75380;HTU21D;65641;44.714;37.756;2023-03-16T01:51:24;13.84;70.70
75380;HTU21D;65641;44.714;37.756;2023-03-16T01:52:31;13.83;70.71
75380;HTU21D;65641;44.714;37.756;2023-03-16T01:53:36;13.83;70.71
75380;HTU21D;65641;44.714;37.756;2023-03-16T01:54:46;13.82;70.74
75380;HTU21D;65641;44.714;37.756;2023-03-16T01:55:50;13.82;70.74
75380;HTU21D;65641;44.714;37.756;2023-03-16T01:57:59;13.81;70.76
75380;HTU21D;65641;44.714;37.756;2023-03-16T01:59:08;13.80;70.77
75380;HTU21D;65641;44.714;37.756;2023-03-16T02:00:16;13.79;70.78
75380;HTU21D;65641;44.714;37.756;2023-03-16T02:01:55;13.79;70.80
75380;HTU21D;65641;44.714;37.756;2023-03-16T02:03:15;13.78;70.80
75380;HTU21D;65641;44.714;37.756;2023-03-16T02:05:30;13.77;70.83
75380;HTU21D;65641;44.714;37.756;2023-03-16T02:06:14;13.77;70.84
75380;HTU21D;65641;44.714;37.756;2023-03-16T02:07:24;13.77;70.85
75380;HTU21D;65641;44.714;37.756;2023-03-16T02:08:27;13.76;70.87
75380;HTU21D;65641;44.714;37.756;2023-03-16T02:09:31;13.76;70.86
75380;HTU21D;65641;44.714;37.756;2023-03-16T02:10:36;13.74;70.88
75380;HTU21D;65641;44.714;37.756;2023-03-16T02:11:39;13.74;70.89
75380;HTU21D;65641;44.714;37.756;2023-03-16T02:12:46;13.73;70.89
75380;HTU21D;65641;44.714;37.756;2023-03-16T02:13:49;13.74;70.91
75380;HTU21D;65641;44.714;37.756;2023-03-16T02:14:54;13.73;70.91
75380;HTU21D;65641;44.714;37.756;2023-03-16T02:16:18;13.71;70.93
75380;HTU21D;65641;44.714;37.756;2023-03-16T02:17:27;13.71;70.93
75380;HTU21D;65641;44.714;37.756;2023-03-16T02:18:35;13.69;70.94
75380;HTU21D;65641;44.714;37.756;2023-03-16T02:22:13;13.69;70.98
75380;HTU21D;65641;44.714;37.756;2023-03-16T02:23:18;13.69;71.00
75380;HTU21D;65641;44.714;37.756;2023-03-16T02:24:23;13.68;71.00
75380;HTU21D;65641;44.714;37.756;2023-03-16T02:26:02;13.68;71.02
75380;HTU21D;65641;44.714;37.756;2023-03-16T02:27:13;13.67;71.03
75380;HTU21D;65641;44.714;37.756;2023-03-16T02:28:30;13.67;71.04
75380;HTU21D;65641;44.714;37.756;2023-03-16T02:31:07;13.67;71.06
75380;HTU21D;65641;44.714;37.756;2023-03-16T02:32:10;13.65;71.07
75380;HTU21D;65641;44.714;37.756;2023-03-16T02:33:15;13.66;71.09
75380;HTU21D;65641;44.714;37.756;2023-03-16T02:34:19;13.64;71.10
75380;HTU21D;65641;44.714;37.756;2023-03-16T02:35:22;13.64;71.09
75380;HTU21D;65641;44.714;37.756;2023-03-16T02:36:26;13.64;71.10
75380;HTU21D;65641;44.714;37.756;2023-03-16T02:37:30;13.63;71.10
75380;HTU21D;65641;44.714;37.756;2023-03-16T02:38:35;13.64;71.11
75380;HTU21D;65641;44.714;37.756;2023-03-16T02:39:38;13.63;71.12
75380;HTU21D;65641;44.714;37.756;2023-03-16T02:40:41;13.63;71.11
75380;HTU21D;65641;44.714;37.756;2023-03-16T02:41:47;13.63;71.13
75380;HTU21D;65641;44.714;37.756;2023-03-16T02:42:59;13.62;71.13
75380;HTU21D;65641;44.714;37.756;2023-03-16T02:44:30;13.61;71.13
75380;HTU21D;65641;44.714;37.756;2023-03-16T02:45:40;13.61;71.14
75380;HTU21D;65641;44.714;37.756;2023-03-16T02:46:45;13.61;71.13
75380;HTU21D;65641;44.714;37.756;2023-03-16T02:47:52;13.61;71.13
75380;HTU21D;65641;44.714;37.756;2023-03-16T02:49:10;13.61;71.16
75380;HTU21D;65641;44.714;37.756;2023-03-16T02:50:18;13.59;71.17
75380;HTU21D;65641;44.714;37.756;2023-03-16T02:51:21;13.60;71.18
75380;HTU21D;65641;44.714;37.756;2023-03-16T02:52:23;13.58;71.19
75380;HTU21D;65641;44.714;37.756;2023-03-16T02:53:26;13.58;71.20
75380;HTU21D;65641;44.714;37.756;2023-03-16T02:54:31;13.58;71.20
75380;HTU21D;65641;44.714;37.756;2023-03-16T02:55:34;13.59;71.20
75380;HTU21D;65641;44.714;37.756;2023-03-16T02:56:37;13.58;71.19
75380;HTU21D;65641;44.714;37.756;2023-03-16T02:57:43;13.58;71.21
75380;HTU21D;65641;44.714;37.756;2023-03-16T02:58:49;13.56;71.22
75380;HTU21D;65641;44.714;37.756;2023-03-16T02:59:54;13.56;71.22
75380;HTU21D;65641;44.714;37.756;2023-03-16T03:00:57;13.56;71.22
75380;HTU21D;65641;44.714;37.756;2023-03-16T03:02:00;13.55;71.25
75380;HTU21D;65641;44.714;37.756;2023-03-16T03:03:04;13.53;71.26
75380;HTU21D;65641;44.714;37.756;2023-03-16T03:04:07;13.55;71.26
75380;HTU21D;65641;44.714;37.756;2023-03-16T03:05:11;13.54;71.26
75380;HTU21D;65641;44.714;37.756;2023-03-16T03:06:14;13.55;71.27
75380;HTU21D;65641;44.714;37.756;2023-03-16T03:07:17;13.54;71.27
75380;HTU21D;65641;44.714;37.756;2023-03-16T03:08:33;13.53;71.27
75380;HTU21D;65641;44.714;37.756;2023-03-16T03:09:40;13.53;71.28
75380;HTU21D;65641;44.714;37.756;2023-03-16T03:11:28;13.52;71.29
75380;HTU21D;65641;44.714;37.756;2023-03-16T03:12:32;13.52;71.29
75380;HTU21D;65641;44.714;37.756;2023-03-16T03:14:06;13.52;71.29
75380;HTU21D;65641;44.714;37.756;2023-03-16T03:15:15;13.52;71.29
75380;HTU21D;65641;44.714;37.756;2023-03-16T03:16:43;13.51;71.31
75380;HTU21D;65641;44.714;37.756;2023-03-16T03:17:50;13.51;71.31
75380;HTU21D;65641;44.714;37.756;2023-03-16T03:18:53;13.51;71.33
75380;HTU21D;65641;44.714;37.756;2023-03-16T03:19:58;13.50;71.32
75380;HTU21D;65641;44.714;37.756;2023-03-16T03:21:26;13.50;71.33
75380;HTU21D;65641;44.714;37.756;2023-03-16T03:22:33;13.50;71.34
75380;HTU21D;65641;44.714;37.756;2023-03-16T03:23:38;13.50;71.34
75380;HTU21D;65641;44.714;37.756;2023-03-16T03:24:42;13.48;71.35
75380;HTU21D;65641;44.714;37.756;2023-03-16T03:25:45;13.49;71.35
75380;HTU21D;65641;44.714;37.756;2023-03-16T03:26:52;13.50;71.35
75380;HTU21D;65641;44.714;37.756;2023-03-16T03:27:55;13.50;71.35
75380;HTU21D;65641;44.714;37.756;2023-03-16T03:29:00;13.49;71.36
75380;HTU21D;65641;44.714;37.756;2023-03-16T03:30:05;13.49;71.36
75380;HTU21D;65641;44.714;37.756;2023-03-16T03:31:19;13.49;71.35
75380;HTU21D;65641;44.714;37.756;2023-03-16T03:32:22;13.48;71.35
75380;HTU21D;65641;44.714;37.756;2023-03-16T03:33:25;13.48;71.35
75380;HTU21D;65641;44.714;37.756;2023-03-16T03:34:28;13.48;71.35
75380;HTU21D;65641;44.714;37.756;2023-03-16T03:35:33;13.47;71.35
75380;HTU21D;65641;44.714;37.756;2023-03-16T03:36:36;13.48;71.36
75380;HTU21D;65641;44.714;37.756;2023-03-16T03:37:41;13.47;71.37
75380;HTU21D;65641;44.714;37.756;2023-03-16T03:38:46;13.46;71.37
75380;HTU21D;65641;44.714;37.756;2023-03-16T03:39:53;13.47;71.38
75380;HTU21D;65641;44.714;37.756;2023-03-16T03:40:56;13.48;71.38
75380;HTU21D;65641;44.714;37.756;2023-03-16T03:42:06;13.47;71.39
75380;HTU21D;65641;44.714;37.756;2023-03-16T03:43:13;13.47;71.38
75380;HTU21D;65641;44.714;37.756;2023-03-16T03:44:21;13.47;71.38
75380;HTU21D;65641;44.714;37.756;2023-03-16T03:45:24;13.45;71.40
75380;HTU21D;65641;44.714;37.756;2023-03-16T03:46:27;13.46;71.42
75380;HTU21D;65641;44.714;37.756;2023-03-16T03:47:33;13.45;71.42
75380;HTU21D;65641;44.714;37.756;2023-03-16T03:48:38;13.45;71.45
75380;HTU21D;65641;44.714;37.756;2023-03-16T03:49:41;13.47;71.42
75380;HTU21D;65641;44.714;37.756;2023-03-16T03:50:45;13.46;71.45
75380;HTU21D;65641;44.714;37.756;2023-03-16T03:52:23;13.46;71.45
75380;HTU21D;65641;44.714;37.756;2023-03-16T03:53:26;13.46;71.47
75380;HTU21D;65641;44.714;37.756;2023-03-16T03:54:55;13.47;71.45
75380;HTU21D;65641;44.714;37.756;2023-03-16T03:55:59;13.46;71.47
75380;HTU21D;65641;44.714;37.756;2023-03-16T03:57:03;13.46;71.48
75380;HTU21D;65641;44.714;37.756;2023-03-16T03:58:06;13.46;71.48
75380;HTU21D;65641;44.714;37.756;2023-03-16T03:59:09;13.47;71.48
75380;HTU21D;65641;44.714;37.756;2023-03-16T04:00:32;13.47;71.49
75380;HTU21D;65641;44.714;37.756;2023-03-16T04:01:37;13.48;71.48
75380;HTU21D;65641;44.714;37.756;2023-03-16T04:02:40;13.47;71.47
75380;HTU21D;65641;44.714;37.756;2023-03-16T04:03:52;13.48;71.45
75380;HTU21D;65641;44.714;37.756;2023-03-16T04:04:55;13.49;71.45
75380;HTU21D;65641;44.714;37.756;2023-03-16T04:05:57;13.48;71.44
75380;HTU21D;65641;44.714;37.756;2023-03-16T04:07:00;13.48;71.44
75380;HTU21D;65641;44.714;37.756;2023-03-16T04:08:03;13.49;71.42
75380;HTU21D;65641;44.714;37.756;2023-03-16T04:09:08;13.49;71.42
75380;HTU21D;65641;44.714;37.756;2023-03-16T04:10:11;13.49;71.42
75380;HTU21D;65641;44.714;37.756;2023-03-16T04:11:16;13.50;71.39
75380;HTU21D;65641;44.714;37.756;2023-03-16T04:12:19;13.49;71.41
75380;HTU21D;65641;44.714;37.756;2023-03-16T04:13:23;13.50;71.40
75380;HTU21D;65641;44.714;37.756;2023-03-16T04:14:26;13.50;71.39
75380;HTU21D;65641;44.714;37.756;2023-03-16T04:15:29;13.51;71.38
75380;HTU21D;65641;44.714;37.756;2023-03-16T04:16:47;13.51;71.38
75380;HTU21D;65641;44.714;37.756;2023-03-16T04:17:55;13.50;71.38
75380;HTU21D;65641;44.714;37.756;2023-03-16T04:18:59;13.51;71.37
75380;HTU21D;65641;44.714;37.756;2023-03-16T04:20:03;13.51;71.36
75380;HTU21D;65641;44.714;37.756;2023-03-16T04:21:16;13.52;71.38
75380;HTU21D;65641;44.714;37.756;2023-03-16T04:22:21;13.52;71.37
75380;HTU21D;65641;44.714;37.756;2023-03-16T04:23:25;13.52;71.35
75380;HTU21D;65641;44.714;37.756;2023-03-16T04:24:29;13.52;71.34
75380;HTU21D;65641;44.714;37.756;2023-03-16T04:25:36;13.53;71.34
75380;HTU21D;65641;44.714;37.756;2023-03-16T04:26:41;13.53;71.33
75380;HTU21D;65641;44.714;37.756;2023-03-16T04:27:46;13.54;71.33
75380;HTU21D;65641;44.714;37.756;2023-03-16T04:28:50;13.53;71.33
75380;HTU21D;65641;44.714;37.756;2023-03-16T04:29:55;13.54;71.31
75380;HTU21D;65641;44.714;37.756;2023-03-16T04:31:06;13.54;71.31
75380;HTU21D;65641;44.714;37.756;2023-03-16T04:32:14;13.55;71.29
75380;HTU21D;65641;44.714;37.756;2023-03-16T04:33:17;13.54;71.31
75380;HTU21D;65641;44.714;37.756;2023-03-16T04:34:20;13.55;71.29
75380;HTU21D;65641;44.714;37.756;2023-03-16T04:35:30;13.56;71.30
75380;HTU21D;65641;44.714;37.756;2023-03-16T04:36:33;13.59;71.31
75380;HTU21D;65641;44.714;37.756;2023-03-16T04:37:36;13.56;71.31
75380;HTU21D;65641;44.714;37.756;2023-03-16T04:38:42;13.58;71.31
75380;HTU21D;65641;44.714;37.756;2023-03-16T04:39:46;13.56;71.30
75380;HTU21D;65641;44.714;37.756;2023-03-16T04:40:49;13.59;71.30
75380;HTU21D;65641;44.714;37.756;2023-03-16T04:41:55;13.59;71.32
75380;HTU21D;65641;44.714;37.756;2023-03-16T04:43:00;13.59;71.30
75380;HTU21D;65641;44.714;37.756;2023-03-16T04:44:06;13.60;71.29
75380;HTU21D;65641;44.714;37.756;2023-03-16T04:45:09;13.60;71.29
75380;HTU21D;65641;44.714;37.756;2023-03-16T04:46:12;13.60;71.30
75380;HTU21D;65641;44.714;37.756;2023-03-16T04:47:16;13.61;71.32
75380;HTU21D;65641;44.714;37.756;2023-03-16T04:48:19;13.61;71.30
75380;HTU21D;65641;44.714;37.756;2023-03-16T04:49:22;13.62;71.29
75380;HTU21D;65641;44.714;37.756;2023-03-16T04:50:26;13.62;71.31
75380;HTU21D;65641;44.714;37.756;2023-03-16T04:51:29;13.62;71.28
75380;HTU21D;65641;44.714;37.756;2023-03-16T04:52:42;13.64;71.28
75380;HTU21D;65641;44.714;37.756;2023-03-16T04:53:45;13.65;71.26
75380;HTU21D;65641;44.714;37.756;2023-03-16T04:55:04;13.66;71.26
75380;HTU21D;65641;44.714;37.756;2023-03-16T04:56:08;13.66;71.25
75380;HTU21D;65641;44.714;37.756;2023-03-16T04:57:11;13.66;71.21
75380;HTU21D;65641;44.714;37.756;2023-03-16T04:58:18;13.67;71.20
75380;HTU21D;65641;44.714;37.756;2023-03-16T04:59:24;13.69;71.16
75380;HTU21D;65641;44.714;37.756;2023-03-16T05:00:44;13.69;71.13
75380;HTU21D;65641;44.714;37.756;2023-03-16T05:01:59;13.68;71.10
75380;HTU21D;65641;44.714;37.756;2023-03-16T05:03:06;13.69;71.06
75380;HTU21D;65641;44.714;37.756;2023-03-16T05:04:09;13.69;71.05
75380;HTU21D;65641;44.714;37.756;2023-03-16T05:05:20;13.70;71.03
75380;HTU21D;65641;44.714;37.756;2023-03-16T05:06:23;13.70;71.03
75380;HTU21D;65641;44.714;37.756;2023-03-16T05:07:26;13.71;71.03
75380;HTU21D;65641;44.714;37.756;2023-03-16T05:08:30;13.71;71.03
75380;HTU21D;65641;44.714;37.756;2023-03-16T05:09:33;13.71;71.02
75380;HTU21D;65641;44.714;37.756;2023-03-16T05:10:36;13.71;71.02
75380;HTU21D;65641;44.714;37.756;2023-03-16T05:11:40;13.71;71.01
75380;HTU21D;65641;44.714;37.756;2023-03-16T05:12:46;13.71;71.00
75380;HTU21D;65641;44.714;37.756;2023-03-16T05:13:49;13.71;71.01
75380;HTU21D;65641;44.714;37.756;2023-03-16T05:14:52;13.71;71.02
75380;HTU21D;65641;44.714;37.756;2023-03-16T05:16:21;13.73;71.00
75380;HTU21D;65641;44.714;37.756;2023-03-16T05:17:26;13.73;71.02
75380;HTU21D;65641;44.714;37.756;2023-03-16T05:18:29;13.73;71.01
75380;HTU21D;65641;44.714;37.756;2023-03-16T05:19:34;13.71;71.03
75380;HTU21D;65641;44.714;37.756;2023-03-16T05:20:37;13.74;71.03
75380;HTU21D;65641;44.714;37.756;2023-03-16T05:21:40;13.73;71.04
75380;HTU21D;65641;44.714;37.756;2023-03-16T05:22:45;13.73;71.04
75380;HTU21D;65641;44.714;37.756;2023-03-16T05:23:54;13.75;71.05
75380;HTU21D;65641;44.714;37.756;2023-03-16T05:24:57;13.74;71.04
75380;HTU21D;65641;44.714;37.756;2023-03-16T05:26:05;13.75;71.03
75380;HTU21D;65641;44.714;37.756;2023-03-16T05:27:11;13.75;71.05
75380;HTU21D;65641;44.714;37.756;2023-03-16T05:28:14;13.76;71.03
75380;HTU21D;65641;44.714;37.756;2023-03-16T05:29:25;13.74;71.02
75380;HTU21D;65641;44.714;37.756;2023-03-16T05:30:28;13.74;71.03
75380;HTU21D;65641;44.714;37.756;2023-03-16T05:31:37;13.75;71.03
75380;HTU21D;65641;44.714;37.756;2023-03-16T05:32:46;13.75;71.03
75380;HTU21D;65641;44.714;37.756;2023-03-16T05:33:51;13.76;71.03
75380;HTU21D;65641;44.714;37.756;2023-03-16T05:34:55;13.76;71.04
75380;HTU21D;65641;44.714;37.756;2023-03-16T05:36:00;13.76;71.04
75380;HTU21D;65641;44.714;37.756;2023-03-16T05:37:05;13.76;71.06
75380;HTU21D;65641;44.714;37.756;2023-03-16T05:38:09;13.78;71.06
75380;HTU21D;65641;44.714;37.756;2023-03-16T05:39:14;13.77;71.06
75380;HTU21D;65641;44.714;37.756;2023-03-16T05:40:21;13.78;71.05
75380;HTU21D;65641;44.714;37.756;2023-03-16T05:41:33;13.78;71.04
75380;HTU21D;65641;44.714;37.756;2023-03-16T05:42:47;13.79;71.03
75380;HTU21D;65641;44.714;37.756;2023-03-16T05:43:51;13.80;71.02
75380;HTU21D;65641;44.714;37.756;2023-03-16T05:44:57;13.81;71.01
75380;HTU21D;65641;44.714;37.756;2023-03-16T05:46:16;13.81;71.00
75380;HTU21D;65641;44.714;37.756;2023-03-16T05:47:23;13.82;71.00
75380;HTU21D;65641;44.714;37.756;2023-03-16T05:48:30;13.81;71.00
75380;HTU21D;65641;44.714;37.756;2023-03-16T05:49:34;13.82;71.00
75380;HTU21D;65641;44.714;37.756;2023-03-16T05:50:41;13.83;71.00
75380;HTU21D;65641;44.714;37.756;2023-03-16T05:51:44;13.84;70.99
75380;HTU21D;65641;44.714;37.756;2023-03-16T05:52:47;13.84;71.02
75380;HTU21D;65641;44.714;37.756;2023-03-16T05:53:55;13.85;71.03
75380;HTU21D;65641;44.714;37.756;2023-03-16T05:55:10;13.85;71.08
75380;HTU21D;65641;44.714;37.756;2023-03-16T05:56:20;13.86;71.08
75380;HTU21D;65641;44.714;37.756;2023-03-16T05:57:25;13.89;71.09
75380;HTU21D;65641;44.714;37.756;2023-03-16T05:58:29;13.89;71.06
75380;HTU21D;65641;44.714;37.756;2023-03-16T05:59:39;13.90;71.05
75380;HTU21D;65641;44.714;37.756;2023-03-16T06:00:45;13.91;71.02
75380;HTU21D;65641;44.714;37.756;2023-03-16T06:01:57;13.91;71.01
75380;HTU21D;65641;44.714;37.756;2023-03-16T06:03:00;13.92;71.00
75380;HTU21D;65641;44.714;37.756;2023-03-16T06:04:07;13.93;71.00
75380;HTU21D;65641;44.714;37.756;2023-03-16T06:05:16;13.94;71.00
75380;HTU21D;65641;44.714;37.756;2023-03-16T06:06:21;13.95;70.98
75380;HTU21D;65641;44.714;37.756;2023-03-16T06:07:34;13.96;70.96
75380;HTU21D;65641;44.714;37.756;2023-03-16T06:08:37;13.97;70.93
75380;HTU21D;65641;44.714;37.756;2023-03-16T06:09:43;13.98;70.89
75380;HTU21D;65641;44.714;37.756;2023-03-16T06:10:49;13.98;70.84
75380;HTU21D;65641;44.714;37.756;2023-03-16T06:11:53;13.99;70.80
75380;HTU21D;65641;44.714;37.756;2023-03-16T06:12:56;14.00;70.78
75380;HTU21D;65641;44.714;37.756;2023-03-16T06:14:01;14.01;70.76
75380;HTU21D;65641;44.714;37.756;2023-03-16T06:15:06;14.01;70.77
75380;HTU21D;65641;44.714;37.756;2023-03-16T06:16:10;14.04;70.77
75380;HTU21D;65641;44.714;37.756;2023-03-16T06:17:15;14.05;70.84
75380;HTU21D;65641;44.714;37.756;2023-03-16T06:18:18;14.07;70.88
75380;HTU21D;65641;44.714;37.756;2023-03-16T06:19:21;14.07;70.95
75380;HTU21D;65641;44.714;37.756;2023-03-16T06:20:28;14.09;70.97
75380;HTU21D;65641;44.714;37.756;2023-03-16T06:21:32;14.12;70.96
75380;HTU21D;65641;44.714;37.756;2023-03-16T06:22:42;14.14;70.94
75380;HTU21D;65641;44.714;37.756;2023-03-16T06:23:46;14.15;70.84
75380;HTU21D;65641;44.714;37.756;2023-03-16T06:24:50;14.19;70.76
75380;HTU21D;65641;44.714;37.756;2023-03-16T06:25:53;14.21;70.66
75380;HTU21D;65641;44.714;37.756;2023-03-16T06:26:59;14.23;70.52
75380;HTU21D;65641;44.714;37.756;2023-03-16T06:28:08;14.24;70.39
75380;HTU21D;65641;44.714;37.756;2023-03-16T06:29:11;14.27;70.28
75380;HTU21D;65641;44.714;37.756;2023-03-16T06:30:15;14.27;70.20
75380;HTU21D;65641;44.714;37.756;2023-03-16T06:31:18;14.28;70.16
75380;HTU21D;65641;44.714;37.756;2023-03-16T06:32:21;14.28;70.11
75380;HTU21D;65641;44.714;37.756;2023-03-16T06:33:24;14.30;70.13
75380;HTU21D;65641;44.714;37.756;2023-03-16T06:34:30;14.32;70.14
75380;HTU21D;65641;44.714;37.756;2023-03-16T06:35:33;14.32;70.19
75380;HTU21D;65641;44.714;37.756;2023-03-16T06:36:56;14.35;70.23
75380;HTU21D;65641;44.714;37.756;2023-03-16T06:37:59;14.36;70.28
75380;HTU21D;65641;44.714;37.756;2023-03-16T06:39:29;14.39;70.29
75380;HTU21D;65641;44.714;37.756;2023-03-16T06:40:32;14.41;70.25
75380;HTU21D;65641;44.714;37.756;2023-03-16T06:41:35;14.44;70.23
75380;HTU21D;65641;44.714;37.756;2023-03-16T06:42:38;14.47;70.19
75380;HTU21D;65641;44.714;37.756;2023-03-16T06:43:44;14.50;70.16
75380;HTU21D;65641;44.714;37.756;2023-03-16T06:44:47;14.54;70.12
75380;HTU21D;65641;44.714;37.756;2023-03-16T06:45:50;14.55;70.10
75380;HTU21D;65641;44.714;37.756;2023-03-16T06:46:53;14.57;70.02
75380;HTU21D;65641;44.714;37.756;2023-03-16T06:47:56;14.62;70.01
75380;HTU21D;65641;44.714;37.756;2023-03-16T06:48:59;14.64;69.90
75380;HTU21D;65641;44.714;37.756;2023-03-16T06:50:03;14.66;69.81
75380;HTU21D;65641;44.714;37.756;2023-03-16T06:51:06;14.70;69.71
75380;HTU21D;65641;44.714;37.756;2023-03-16T06:52:11;14.73;69.64
75380;HTU21D;65641;44.714;37.756;2023-03-16T06:53:15;14.77;69.50
75380;HTU21D;65641;44.714;37.756;2023-03-16T06:54:18;14.79;69.36
75380;HTU21D;65641;44.714;37.756;2023-03-16T06:55:20;14.82;69.22